info@concordregional.com
(704) 793-1234
contact us

We're located at
Concord Regional Airport
Concord, North Carolina
Hangar D, same office locations as Charlotte Jet

Flight Planning and Weather Links

Regional METARS  |  NOAA Aviation WX  |  JQF Terminal Charts  |  FltPlan.COM  |  DTC Duats  |  CSC Duats

KJQF 200335Z AUTO 00000KT 10SM -RA OVC060 11/09 A3026 RMK AO2 P0001
KCLT 200252Z 03014KT 7SM -RA SCT050 OVC080 11/08 A3022 RMK AO2 SLP232 P0005 60035 T01110083 51008
KGSO 200254Z 04007KT 10SM FEW080 OVC100 13/06 A3022 RMK AO2 SLP233 60000 T01330061 51012
KRDU 200251Z 06009KT 10SM OVC075 12/06 A3023 RMK AO2 RAE33 SLP235 P0000 60000 T01170061 52010
KAVL 200254Z AUTO 34003KT 9SM -RA OVC080 08/08 A3025 RMK AO2 SLP237 P0006 60023 T00830078 50002
KGSP 200253Z 03009KT 10SM OVC047 11/08 A3020 RMK AO2 SLP224 60002 T01110083 50010
KCAE 200329Z 02012G22KT 3SM -RA BR BKN010 OVC015 11/09 A3015 RMK AO2 CIG 007V011 P0000 T01110094
KCHS 200256Z 01012KT 6SM BR OVC007 13/11 A3006 RMK AO2 RAB47E56 SLP177 P0000 60000 T01280106 53014

Radar Info

Concord Terminal Charts and local weather

Top